Terminal Aerodrome Forecast
Issued by NWS

Home | Current Version | Previous Version | Text Only | Print | Product List | Glossary On
Versions: 1 2 3 4 5 6 7 8 9 10 11 12 13 14 15 16 17 18 19 20 21 22 23 24 25 26 27 28 29 30 31
000
FTUS41 KBOX 040953 AAA
TAFHYA
TAF AMD
KHYA 040953Z 0410/0506 23020G30KT P6SM -RA OVC007 WS020/25040KT
     FM041200 24014G22KT P6SM OVC010
     FM041700 25010KT P6SM OVC015
     FM042100 25008KT P6SM OVC025
     FM050000 25006KT 3SM -RASN BR OVC025
     FM050300 28006KT 3SM -SNPL BR OVC020=

USA.gov is the U.S. government's official web portal to all federal, state and local government web resources and services.